Time;durP1;ratioP1;P1;durP2;ratioP2;P2;SDS_P1;SDS_P2;PMS_P1;PMS_P2;Temp;Humidity;BMP_temperature;BMP_pressure;BME280_temperature;BME280_humidity;BME280_pressure;Samples;Min_cycle;Max_cycle;Signal;HPM_P1;HPM_P2
2023/04/13 00:02:23;;;;;;;18.35;12.63;;;;;;;10.66;94.67;99800.81;5025972;28;20801;-82
2023/04/13 00:04:50;;;;;;;19.23;13.25;;;;;;;10.68;93.99;99801.50;5009434;28;20041;-82
2023/04/13 00:07:18;;;;;;;20.00;12.63;;;;;;;10.57;94.00;99805.22;5026054;28;20048;-83
2023/04/13 00:09:46;;;;;;;19.08;12.95;;;;;;;10.54;94.03;99799.28;5025789;28;20038;-82
2023/04/13 00:12:12;;;;;;;18.30;14.02;;;;;;;10.58;94.41;99804.22;5026014;28;20037;-81
2023/04/13 00:14:38;;;;;;;23.83;13.45;;;;;;;10.58;94.17;99809.59;5025491;28;20041;-82
2023/04/13 00:17:03;;;;;;;19.00;12.95;;;;;;;10.57;94.32;99807.06;5025842;28;20029;-82
2023/04/13 00:19:29;;;;;;;21.48;13.02;;;;;;;10.56;94.35;99816.97;5025951;28;20034;-82
2023/04/13 00:21:54;;;;;;;16.30;11.77;;;;;;;10.51;94.50;99813.88;5025678;28;20030;-84
2023/04/13 00:24:20;;;;;;;16.60;12.07;;;;;;;10.51;94.59;99819.25;5025480;28;20029;-83
2023/04/13 00:26:46;;;;;;;20.35;13.68;;;;;;;10.49;94.72;99813.16;5025832;28;20045;-81
2023/04/13 00:29:13;;;;;;;18.45;12.55;;;;;;;10.54;94.25;99834.25;5027469;28;20029;-82
2023/04/13 00:31:38;;;;;;;19.25;13.95;;;;;;;10.55;94.19;99831.38;5015856;28;20042;-82
2023/04/13 00:34:05;;;;;;;22.35;13.90;;;;;;;10.57;94.23;99844.69;5012271;28;20030;-82
2023/04/13 00:36:31;;;;;;;20.08;12.95;;;;;;;10.42;93.53;99841.63;5012005;28;20038;-82
2023/04/13 00:38:57;;;;;;;19.77;13.95;;;;;;;10.46;93.40;99843.00;5012328;28;20032;-81
2023/04/13 00:41:23;;;;;;;20.48;13.82;;;;;;;10.45;93.90;99827.03;5012596;28;20197;-82
2023/04/13 00:43:49;;;;;;;22.13;14.20;;;;;;;10.59;94.28;99848.09;5013706;28;20034;-82
2023/04/13 00:46:17;;;;;;;20.55;14.88;;;;;;;10.59;94.53;99848.94;5012720;28;20041;-83
2023/04/13 00:48:44;;;;;;;22.23;14.15;;;;;;;10.58;94.44;99849.91;5016757;28;20033;-85
2023/04/13 00:51:10;;;;;;;21.15;15.65;;;;;;;10.51;93.82;99848.81;5028803;28;20026;-84
2023/04/13 00:53:36;;;;;;;21.83;15.13;;;;;;;10.52;94.00;99858.56;5021138;28;20025;-82
2023/04/13 00:56:04;;;;;;;22.83;15.93;;;;;;;10.53;94.67;99854.91;5011855;28;20479;-83
2023/04/13 00:58:31;;;;;;;22.88;15.75;;;;;;;10.58;95.04;99866.06;5011778;28;20488;-83
2023/04/13 01:00:56;;;;;;;26.85;16.50;;;;;;;10.54;95.15;99867.34;5011575;28;20033;-84
2023/04/13 01:03:21;;;;;;;24.63;17.77;;;;;;;10.56;95.09;99869.88;5010383;28;20033;-82
2023/04/13 01:06:07;;;;;;;22.98;15.25;;;;;;;10.46;95.36;99869.88;5011406;28;20431;-82
2023/04/13 01:08:46;;;;;;;22.38;15.93;;;;;;;10.47;95.75;99871.59;5010196;28;20101;-83
2023/04/13 01:11:18;;;;;;;25.58;17.45;;;;;;;10.47;94.64;99868.91;5011252;28;20034;-82
2023/04/13 01:13:54;;;;;;;26.15;16.20;;;;;;;10.40;94.94;99865.09;5011372;28;20026;-84
2023/04/13 01:16:26;;;;;;;27.15;16.80;;;;;;;10.35;94.58;99864.66;5011583;28;20038;-81
2023/04/13 01:18:53;;;;;;;24.27;15.90;;;;;;;10.38;94.57;99878.69;5011652;28;20026;-84
2023/04/13 01:21:24;;;;;;;28.08;16.70;;;;;;;10.34;94.64;99871.03;5011286;28;20559;-82
2023/04/13 01:24:16;;;;;;;24.98;16.52;;;;;;;10.31;94.38;99892.81;5011380;28;20104;-84
2023/04/13 01:27:21;;;;;;;24.52;17.52;;;;;;;10.27;95.00;99897.59;4969458;28;20039;-84
2023/04/13 01:29:49;;;;;;;25.83;15.18;;;;;;;10.28;95.12;99890.41;4969314;28;20435;-82
2023/04/13 01:32:15;;;;;;;25.70;17.05;;;;;;;10.30;95.52;99889.25;4968760;28;20447;-82
2023/04/13 01:34:41;;;;;;;25.67;14.48;;;;;;;10.28;95.77;99882.34;4969089;28;20035;-82
2023/04/13 01:37:08;;;;;;;29.95;16.20;;;;;;;10.30;95.51;99877.69;4968978;28;20065;-82
2023/04/13 01:39:36;;;;;;;21.40;15.20;;;;;;;10.32;95.64;99878.41;4969359;28;20039;-82
2023/04/13 01:42:02;;;;;;;23.50;14.73;;;;;;;10.40;95.28;99891.13;4969621;28;20035;-81
2023/04/13 01:44:32;;;;;;;22.13;14.25;;;;;;;10.41;95.18;99893.66;4970569;28;20066;-82
2023/04/13 01:47:14;;;;;;;20.20;14.30;;;;;;;10.36;95.39;99882.50;4970524;28;20038;-81
2023/04/13 01:49:43;;;;;;;22.13;14.23;;;;;;;10.42;95.23;99898.06;4983569;28;20073;-82
2023/04/13 01:52:10;;;;;;;22.65;15.05;;;;;;;10.49;95.80;99896.47;4986436;28;20227;-84
2023/04/13 01:54:39;;;;;;;22.65;14.98;;;;;;;10.49;95.28;99909.94;4974488;28;20507;-83
2023/04/13 01:57:05;;;;;;;22.95;14.55;;;;;;;10.42;94.48;99906.13;4968980;28;20130;-83
2023/04/13 01:59:31;;;;;;;18.80;12.93;;;;;;;10.41;94.91;99915.16;4968955;28;20035;-82
2023/04/13 02:01:58;;;;;;;21.13;13.20;;;;;;;10.41;94.74;99914.31;4969153;28;20117;-84
2023/04/13 02:04:23;;;;;;;20.33;13.40;;;;;;;10.28;94.33;99893.09;5000665;28;20069;-83
2023/04/13 02:06:50;;;;;;;19.65;14.10;;;;;;;10.31;94.00;99909.78;5010580;28;20050;-81
2023/04/13 02:09:16;;;;;;;21.45;14.98;;;;;;;10.30;94.36;99915.31;5010626;28;20029;-81
2023/04/13 02:11:43;;;;;;;22.30;15.55;;;;;;;10.21;94.32;99903.56;5010316;28;20030;-83
2023/04/13 02:14:09;;;;;;;23.05;15.30;;;;;;;10.29;94.61;99918.97;5010262;28;20033;-81
2023/04/13 02:16:34;;;;;;;21.17;14.85;;;;;;;10.27;94.29;99929.03;5010877;28;20030;-81
2023/04/13 02:19:00;;;;;;;25.33;14.88;;;;;;;10.25;94.75;99931.00;5010344;28;20088;-82
2023/04/13 02:21:26;;;;;;;23.10;14.80;;;;;;;10.16;94.91;99926.47;5010270;28;20505;-82
2023/04/13 02:23:52;;;;;;;24.77;14.85;;;;;;;10.17;95.69;99933.53;5010445;28;20030;-83
2023/04/13 02:26:18;;;;;;;19.42;14.25;;;;;;;10.12;95.92;99930.41;5009526;28;20034;-82
2023/04/13 02:28:45;;;;;;;22.00;13.45;;;;;;;9.93;95.66;99908.88;5009853;28;20026;-82
2023/04/13 02:31:15;;;;;;;21.30;14.77;;;;;;;10.02;95.45;99933.06;5009735;28;20029;-81
2023/04/13 02:33:42;;;;;;;23.05;14.95;;;;;;;10.03;95.93;99936.59;5009991;28;20145;-81
2023/04/13 02:36:08;;;;;;;21.60;15.02;;;;;;;10.02;96.69;99934.91;5010099;28;20108;-83
2023/04/13 02:38:36;;;;;;;22.65;15.55;;;;;;;9.90;96.80;99927.94;5010303;28;20656;-82
2023/04/13 02:41:01;;;;;;;20.65;14.52;;;;;;;9.88;97.21;99944.19;5010707;28;20033;-84
2023/04/13 02:43:27;;;;;;;24.55;16.38;;;;;;;9.87;97.22;99930.91;5010802;28;21423;-83
2023/04/13 02:45:53;;;;;;;26.90;18.35;;;;;;;9.83;97.03;99941.91;5010297;28;20028;-83
2023/04/13 02:48:19;;;;;;;25.42;17.17;;;;;;;9.77;97.42;99928.19;5017367;28;20029;-83
2023/04/13 02:50:45;;;;;;;27.27;15.68;;;;;;;9.79;97.19;99935.13;5023731;28;20086;-81
2023/04/13 02:53:11;;;;;;;25.92;16.85;;;;;;;9.80;97.35;99936.81;5018778;28;20025;-85
2023/04/13 02:55:37;;;;;;;22.27;15.20;;;;;;;9.74;97.22;99931.16;5009867;28;20033;-81
2023/04/13 02:58:03;;;;;;;27.25;16.92;;;;;;;9.81;96.81;99946.56;5009577;28;20190;-83
2023/04/13 03:00:29;;;;;;;26.88;15.65;;;;;;;9.85;96.88;99939.06;5010057;28;20022;-81
2023/04/13 03:02:55;;;;;;;20.05;13.07;;;;;;;9.87;97.28;99947.88;5009575;28;20053;-84
2023/04/13 03:05:21;;;;;;;21.38;14.45;;;;;;;9.91;97.18;99940.41;5010042;28;20032;-82
2023/04/13 03:07:46;;;;;;;21.33;13.13;;;;;;;9.89;96.79;99934.28;5010194;28;20022;-84
2023/04/13 03:10:12;;;;;;;17.05;13.27;;;;;;;9.85;96.49;99926.50;5009456;28;20528;-83
2023/04/13 03:12:38;;;;;;;20.67;12.70;;;;;;;9.93;96.69;99935.72;5009265;28;20030;-82
2023/04/13 03:15:07;;;;;;;17.55;11.95;;;;;;;9.99;96.41;99945.91;5009634;28;20022;-82
2023/04/13 03:17:32;;;;;;;17.08;11.93;;;;;;;10.02;96.16;99945.63;5009964;28;20022;-81
2023/04/13 03:19:58;;;;;;;17.73;11.23;;;;;;;10.03;95.91;99947.34;5010075;28;20030;-82
2023/04/13 03:22:24;;;;;;;16.48;11.65;;;;;;;10.00;96.01;99936.88;5010380;28;20033;-82
2023/04/13 03:24:51;;;;;;;13.73;10.48;;;;;;;10.03;95.48;99941.97;5010106;28;20034;-83
2023/04/13 03:27:16;;;;;;;20.25;12.77;;;;;;;10.11;95.42;99939.44;5014521;28;20037;-81
2023/04/13 03:29:42;;;;;;;17.50;12.43;;;;;;;10.14;95.58;99948.09;5018990;28;20030;-81
2023/04/13 03:32:07;;;;;;;16.58;11.60;;;;;;;10.15;94.98;99938.22;5021893;28;20049;-81
2023/04/13 03:34:33;;;;;;;18.23;11.95;;;;;;;10.20;95.01;99949.38;5033167;28;20033;-83
2023/04/13 03:36:58;;;;;;;16.92;12.13;;;;;;;10.23;94.19;99943.72;5031751;28;20021;-81
2023/04/13 03:39:24;;;;;;;21.25;11.93;;;;;;;10.23;93.89;99951.78;5023087;28;20113;-82
2023/04/13 03:41:49;;;;;;;20.25;11.88;;;;;;;10.27;93.85;99966.66;5030528;28;20034;-81
2023/04/13 03:44:15;;;;;;;20.05;12.15;;;;;;;10.23;93.64;99960.72;5016157;28;20036;-82
2023/04/13 03:46:40;;;;;;;19.48;13.10;;;;;;;10.31;92.86;99978.81;5011153;28;20481;-83
2023/04/13 03:49:08;;;;;;;16.17;11.18;;;;;;;10.23;92.36;99987.59;5022128;28;20030;-84
2023/04/13 03:51:37;;;;;;;21.50;13.80;;;;;;;10.24;92.04;100004.56;5022615;28;20033;-81
2023/04/13 03:54:02;;;;;;;19.83;13.52;;;;;;;10.20;91.90;100008.50;5010911;28;20087;-82
2023/04/13 03:56:28;;;;;;;26.98;14.73;;;;;;;10.14;92.14;100003.69;5009366;28;20093;-82
2023/04/13 03:58:54;;;;;;;23.35;14.10;;;;;;;10.16;92.51;100017.81;5008730;28;20504;-83
2023/04/13 04:01:20;;;;;;;24.90;15.57;;;;;;;10.13;92.49;100015.38;5008896;28;20374;-83
2023/04/13 04:03:45;;;;;;;20.40;15.18;;;;;;;10.20;93.09;100022.78;5010321;28;20040;-81
2023/04/13 04:06:11;;;;;;;23.30;14.57;;;;;;;10.24;92.85;100024.19;5012562;28;20036;-83
2023/04/13 04:08:36;;;;;;;20.58;14.13;;;;;;;10.25;92.67;100025.06;5012677;28;20032;-82
2023/04/13 04:11:03;;;;;;;22.45;15.10;;;;;;;10.11;91.83;100014.66;5012791;28;20032;-83
2023/04/13 04:13:28;;;;;;;22.85;14.98;;;;;;;10.17;91.68;100027.59;5013007;28;20029;-82
2023/04/13 04:15:55;;;;;;;28.85;17.40;;;;;;;10.16;91.65;100033.94;5012284;28;20026;-82
2023/04/13 04:18:21;;;;;;;27.65;15.77;;;;;;;10.16;91.85;100031.25;5012358;28;20037;-82
2023/04/13 04:20:46;;;;;;;22.40;15.40;;;;;;;10.17;91.69;100031.13;5012284;28;20017;-83
2023/04/13 04:23:14;;;;;;;26.85;16.35;;;;;;;10.10;91.88;100035.31;5012197;28;20056;-82
2023/04/13 04:25:39;;;;;;;20.55;14.88;;;;;;;10.17;91.66;100038.34;5011896;28;20481;-83
2023/04/13 04:28:05;;;;;;;22.90;15.25;;;;;;;10.20;92.15;100051.50;5011994;28;20030;-83
2023/04/13 04:30:32;;;;;;;23.52;15.38;;;;;;;10.21;91.91;100050.53;5012411;28;20105;-82
2023/04/13 04:33:00;;;;;;;21.17;13.95;;;;;;;10.13;91.91;100055.66;5012485;28;20141;-83
2023/04/13 04:35:31;;;;;;;21.65;14.88;;;;;;;10.02;91.41;100053.09;5011884;28;20504;-84
2023/04/13 04:37:59;;;;;;;21.25;13.70;;;;;;;9.98;91.24;100052.50;5011969;28;20022;-81
2023/04/13 04:40:25;;;;;;;19.70;13.68;;;;;;;10.06;91.65;100066.09;5012783;28;20558;-80
2023/04/13 04:42:50;;;;;;;24.95;15.27;;;;;;;10.13;91.71;100072.69;5013154;28;20105;-83
2023/04/13 04:45:16;;;;;;;30.00;15.27;;;;;;;10.14;91.14;100070.84;5012307;28;20032;-82
2023/04/13 04:47:42;;;;;;;28.40;16.58;;;;;;;10.04;89.87;100080.66;5016407;28;20096;-82
2023/04/13 04:50:13;;;;;;;27.92;16.58;;;;;;;10.09;89.08;100071.22;5021803;28;20026;-81
2023/04/13 04:52:39;;;;;;;24.08;16.55;;;;;;;10.12;88.83;100067.44;5016399;28;20754;-83
2023/04/13 04:55:05;;;;;;;29.80;17.10;;;;;;;10.16;88.74;100075.09;5011972;28;20064;-81
2023/04/13 04:57:32;;;;;;;28.58;15.35;;;;;;;10.21;88.08;100072.03;5011429;28;20018;-83
2023/04/13 04:59:58;;;;;;;24.85;16.48;;;;;;;10.29;86.97;100080.25;5026868;28;20402;-82
2023/04/13 05:02:23;;;;;;;23.00;14.60;;;;;;;10.32;85.80;100078.13;5011422;28;20155;-83
2023/04/13 05:04:49;;;;;;;29.85;14.68;;;;;;;10.38;84.97;100082.09;5010965;28;20029;-82
2023/04/13 05:07:16;;;;;;;25.55;13.60;;;;;;;10.46;84.38;100076.06;5011599;28;20100;-82
2023/04/13 05:09:43;;;;;;;22.52;14.23;;;;;;;10.46;83.97;100084.94;5011003;28;20494;-82
2023/04/13 05:12:08;;;;;;;19.05;12.77;;;;;;;10.51;82.37;100084.56;5011390;28;20026;-82
2023/04/13 05:14:34;;;;;;;32.38;14.57;;;;;;;10.51;82.31;100066.59;5009133;28;20049;-82
2023/04/13 05:17:00;;;;;;;29.02;13.52;;;;;;;10.60;81.37;100086.41;5011178;28;20022;-81
2023/04/13 05:19:26;;;;;;;18.98;13.32;;;;;;;10.62;81.15;100071.84;5011569;28;20057;-82
2023/04/13 05:21:51;;;;;;;22.00;13.30;;;;;;;10.66;80.44;100080.47;5010984;28;20032;-82
2023/04/13 05:24:17;;;;;;;31.58;14.50;;;;;;;10.74;79.93;100089.56;5011133;28;20116;-82
2023/04/13 05:26:42;;;;;;;29.08;14.05;;;;;;;10.71;79.58;100094.34;5010815;28;20026;-82
2023/04/13 05:29:08;;;;;;;22.38;14.23;;;;;;;10.77;79.71;100097.34;5010897;28;20030;-82
2023/04/13 05:31:34;;;;;;;23.08;13.77;;;;;;;10.82;80.34;100087.00;5010979;28;20552;-81
2023/04/13 05:34:00;;;;;;;26.52;13.70;;;;;;;10.88;80.65;100083.78;5010494;28;21211;-81
2023/04/13 05:36:27;;;;;;;24.52;13.48;;;;;;;10.96;80.11;100090.28;5009357;28;20428;-82
2023/04/13 05:38:53;;;;;;;21.13;14.15;;;;;;;11.02;79.43;100092.41;5011415;28;20037;-82
2023/04/13 05:41:18;;;;;;;27.88;13.02;;;;;;;10.99;80.10;100080.09;5011594;28;20049;-83
2023/04/13 05:43:45;;;;;;;20.05;13.02;;;;;;;11.09;78.87;100083.66;5025346;28;20041;-82
2023/04/13 05:46:10;;;;;;;20.75;12.45;;;;;;;11.07;78.81;100068.63;5010951;28;20390;-82
2023/04/13 05:48:35;;;;;;;47.13;18.85;;;;;;;11.09;78.58;100072.03;5022220;28;20029;-85
2023/04/13 05:51:01;;;;;;;26.58;11.55;;;;;;;11.21;77.61;100079.81;5022073;28;20073;-82
2023/04/13 05:53:26;;;;;;;24.20;11.75;;;;;;;11.17;76.82;100053.31;5011586;28;20021;-82
2023/04/13 05:55:53;;;;;;;20.77;10.27;;;;;;;11.24;76.75;100065.22;5010357;28;20068;-83
2023/04/13 05:58:19;;;;;;;24.05;9.52;;;;;;;11.26;76.43;100068.63;5010418;28;20520;-82
2023/04/13 06:00:44;;;;;;;18.10;10.07;;;;;;;11.32;76.26;100079.66;5010108;28;20104;-83
2023/04/13 06:03:10;;;;;;;16.50;8.57;;;;;;;11.37;75.88;100081.94;5010111;28;20033;-81
2023/04/13 06:05:37;;;;;;;25.52;9.05;;;;;;;11.46;76.22;100073.00;5025166;28;20026;-82
2023/04/13 06:08:02;;;;;;;25.95;9.20;;;;;;;11.54;76.23;100074.97;5010239;28;20033;-82
2023/04/13 06:10:28;;;;;;;21.33;8.18;;;;;;;11.46;75.05;100071.16;5010043;28;20429;-81
2023/04/13 06:12:54;;;;;;;23.85;8.15;;;;;;;11.62;74.89;100085.88;5025140;28;20092;-82
2023/04/13 06:15:20;;;;;;;20.75;10.60;;;;;;;11.71;74.87;100085.88;5009790;28;20136;-82
2023/04/13 06:17:46;;;;;;;17.55;9.13;;;;;;;11.76;74.53;100080.91;5009643;28;20026;-83
2023/04/13 06:20:11;;;;;;;18.75;6.85;;;;;;;11.77;73.43;100077.19;5009914;28;20041;-85
2023/04/13 06:22:37;;;;;;;18.42;7.30;;;;;;;11.85;73.47;100088.13;5010227;28;20076;-82
2023/04/13 06:25:03;;;;;;;11.25;5.68;;;;;;;12.04;72.37;100089.06;5010306;28;20044;-82
2023/04/13 06:27:31;;;;;;;11.40;5.32;;;;;;;12.17;71.60;100089.59;5011176;28;20406;-83
2023/04/13 06:29:57;;;;;;;11.40;6.40;;;;;;;12.21;69.21;100088.25;5010137;28;20037;-81
2023/04/13 06:32:22;;;;;;;14.05;6.20;;;;;;;12.32;67.94;100094.31;5008598;28;20054;-81
2023/04/13 06:34:48;;;;;;;26.55;11.10;;;;;;;12.50;68.63;100086.31;5010136;28;20068;-83
2023/04/13 06:37:13;;;;;;;19.50;11.80;;;;;;;12.58;67.13;100094.47;5010552;28;20034;-81
2023/04/13 06:39:38;;;;;;;22.27;13.73;;;;;;;12.65;67.89;100092.88;5011104;28;20033;-82
2023/04/13 06:42:04;;;;;;;27.02;14.80;;;;;;;12.71;66.75;100096.81;5010985;28;20030;-85
2023/04/13 06:44:30;;;;;;;28.17;12.77;;;;;;;12.83;66.48;100087.50;5009991;28;20029;-83
2023/04/13 06:46:55;;;;;;;27.92;13.68;;;;;;;12.88;65.61;100088.75;5016952;28;20041;-82
2023/04/13 06:49:21;;;;;;;39.13;13.38;;;;;;;13.05;66.02;100098.72;5018666;28;20029;-81
2023/04/13 06:51:46;;;;;;;26.85;12.90;;;;;;;13.09;63.88;100105.53;5015461;28;20132;-80
2023/04/13 06:54:12;;;;;;;21.38;11.57;;;;;;;13.13;62.76;100103.38;5009301;28;20025;-82
2023/04/13 06:56:37;;;;;;;23.05;10.63;;;;;;;13.21;63.30;100100.75;5010050;28;20030;-81
2023/04/13 06:59:03;;;;;;;37.28;11.45;;;;;;;13.32;62.73;100103.22;5010778;28;20029;-82
2023/04/13 07:01:29;;;;;;;18.33;10.35;;;;;;;13.37;62.54;100103.59;5009750;28;20030;-83
2023/04/13 07:03:54;;;;;;;15.63;8.45;;;;;;;13.42;62.11;100098.56;5009600;28;20029;-82
2023/04/13 07:06:21;;;;;;;17.15;7.50;;;;;;;13.43;60.55;100102.97;5011672;28;20653;-82
2023/04/13 07:08:47;;;;;;;17.45;7.38;;;;;;;13.49;60.93;100109.59;5009932;28;20022;-81
2023/04/13 07:11:13;;;;;;;13.30;7.05;;;;;;;13.52;60.84;100102.03;5008610;28;20383;-81
2023/04/13 07:13:39;;;;;;;25.40;6.50;;;;;;;13.64;60.71;100108.03;5009708;28;20121;-80
2023/04/13 07:16:07;;;;;;;12.45;7.57;;;;;;;13.69;60.88;100105.72;5009515;28;20065;-82
2023/04/13 07:18:33;;;;;;;17.02;8.00;;;;;;;13.80;61.04;100108.16;5010338;28;20053;-80
2023/04/13 07:20:59;;;;;;;14.52;8.02;;;;;;;13.80;60.25;100108.16;5010314;28;20473;-79
2023/04/13 07:23:24;;;;;;;19.50;8.48;;;;;;;13.88;60.67;100113.63;5014797;28;20123;-79
2023/04/13 07:25:50;;;;;;;13.85;8.02;;;;;;;14.04;61.13;100121.00;5010141;28;20121;-80
2023/04/13 07:28:15;;;;;;;19.05;9.30;;;;;;;14.13;60.40;100117.31;5009872;28;20033;-80
2023/04/13 07:30:45;;;;;;;27.60;10.18;;;;;;;14.23;59.94;100120.78;5009294;28;20034;-81
2023/04/13 07:33:11;;;;;;;20.02;9.13;;;;;;;14.32;60.26;100114.41;5009064;28;20084;-81
2023/04/13 07:35:36;;;;;;;14.60;9.15;;;;;;;14.34;60.25;100112.41;5011286;28;20038;-81
2023/04/13 07:38:02;;;;;;;24.30;10.88;;;;;;;14.43;59.72;100118.72;5012402;28;20036;-82
2023/04/13 07:40:28;;;;;;;22.17;9.73;;;;;;;14.41;59.08;100113.47;5017505;28;20096;-79
2023/04/13 07:42:53;;;;;;;21.85;10.38;;;;;;;14.44;59.17;100123.97;5020792;28;20014;-80
2023/04/13 07:45:21;;;;;;;24.92;10.32;;;;;;;14.49;59.92;100121.66;5022014;28;20030;-80
2023/04/13 07:47:47;;;;;;;36.50;9.75;;;;;;;14.55;59.24;100101.19;5022900;28;20113;-81
2023/04/13 07:50:13;;;;;;;17.02;9.88;;;;;;;14.57;58.51;100105.44;5023723;28;20025;-82
2023/04/13 07:52:38;;;;;;;23.77;10.10;;;;;;;14.62;58.82;100102.22;5014998;28;20034;-83
2023/04/13 07:55:06;;;;;;;14.13;8.23;;;;;;;14.84;57.82;100108.91;5014160;28;20038;-83
2023/04/13 07:57:32;;;;;;;20.63;9.00;;;;;;;15.02;57.65;100112.31;5013262;28;20072;-81
2023/04/13 07:59:57;;;;;;;21.65;8.55;;;;;;;15.04;57.08;100099.50;5012606;28;20025;-81
2023/04/13 08:02:24;;;;;;;20.05;9.23;;;;;;;15.18;55.99;100115.06;5012947;28;20488;-81
2023/04/13 08:04:51;;;;;;;24.17;9.30;;;;;;;15.22;56.09;100103.75;5012451;28;20057;-80
2023/04/13 08:07:17;;;;;;;23.83;8.68;;;;;;;15.24;56.20;100101.72;5012634;28;20021;-81
2023/04/13 08:09:42;;;;;;;23.88;9.95;;;;;;;15.46;56.24;100100.22;5012957;28;20026;-80
2023/04/13 08:12:08;;;;;;;14.68;8.60;;;;;;;15.52;55.08;100098.72;5012566;28;20026;-82
2023/04/13 08:14:34;;;;;;;25.00;9.00;;;;;;;15.63;55.78;100095.66;5012216;28;20093;-80
2023/04/13 08:17:00;;;;;;;30.23;8.77;;;;;;;15.79;55.10;100101.06;5012639;28;20036;-80
2023/04/13 08:19:26;;;;;;;30.98;9.13;;;;;;;15.80;54.70;100078.38;5012500;28;20052;-84
2023/04/13 08:21:52;;;;;;;34.67;9.88;;;;;;;16.02;54.60;100102.06;5012602;28;20508;-83
2023/04/13 08:24:19;;;;;;;12.15;7.22;;;;;;;16.16;54.49;100098.63;5012507;28;20045;-81
2023/04/13 08:26:45;;;;;;;37.90;11.48;;;;;;;16.26;53.74;100088.44;5010821;28;20034;-80
2023/04/13 08:29:12;;;;;;;28.83;9.43;;;;;;;16.39;53.45;100096.00;5012137;28;20111;-81
2023/04/13 08:31:39;;;;;;;21.27;7.97;;;;;;;16.37;51.74;100089.91;5012414;28;20029;-81
2023/04/13 08:34:05;;;;;;;17.38;9.63;;;;;;;16.47;51.66;100092.44;5027415;28;20038;-80
2023/04/13 08:36:32;;;;;;;15.80;7.65;;;;;;;16.36;50.24;100076.53;5012351;28;20029;-82
2023/04/13 08:38:57;;;;;;;20.88;7.57;;;;;;;16.47;51.05;100076.16;5012346;28;20022;-79
2023/04/13 08:41:23;;;;;;;15.65;6.95;;;;;;;16.54;50.33;100088.88;5011928;28;20151;-81
2023/04/13 08:43:49;;;;;;;11.65;7.30;;;;;;;16.54;49.39;100088.00;5012343;28;20105;-81
2023/04/13 08:46:18;;;;;;;24.20;8.57;;;;;;;16.54;50.01;100080.75;5017338;28;20151;-82
2023/04/13 08:48:45;;;;;;;12.60;6.97;;;;;;;16.62;50.17;100083.41;5018340;28;20041;-81
2023/04/13 08:51:13;;;;;;;17.83;6.20;;;;;;;16.64;49.67;100078.63;5013744;28;20060;-80
2023/04/13 08:53:38;;;;;;;17.90;7.72;;;;;;;16.66;49.15;100081.19;5011385;28;20028;-81
2023/04/13 08:56:09;;;;;;;11.32;5.25;;;;;;;16.66;48.41;100062.19;5011125;28;20029;-82
2023/04/13 08:58:36;;;;;;;13.35;5.40;;;;;;;16.76;47.64;100073.66;5011325;28;20037;-81
2023/04/13 09:01:05;;;;;;;15.65;4.78;;;;;;;16.87;47.87;100070.56;5011877;28;20413;-82
2023/04/13 09:03:38;;;;;;;14.35;4.65;;;;;;;16.90;47.19;100051.19;5011307;28;20109;-81
2023/04/13 09:06:08;;;;;;;20.70;5.47;;;;;;;17.16;47.75;100057.09;5011350;28;20030;-82
2023/04/13 09:08:35;;;;;;;12.82;4.68;;;;;;;17.22;45.93;100059.09;5011179;28;20033;-81
2023/04/13 09:11:01;;;;;;;16.20;5.88;;;;;;;17.22;46.68;100053.66;5011391;28;20116;-80
2023/04/13 09:13:28;;;;;;;12.50;6.40;;;;;;;17.32;46.94;100064.28;5011077;28;20022;-83
2023/04/13 09:15:53;;;;;;;20.08;5.85;;;;;;;17.40;47.66;100061.50;5011383;28;20068;-80
2023/04/13 09:18:19;;;;;;;12.70;5.80;;;;;;;17.44;46.60;100057.41;5011153;28;20081;-83
2023/04/13 09:20:58;;;;;;;9.38;5.35;;;;;;;17.46;45.81;100049.06;5009340;28;20030;-80
2023/04/13 09:23:24;;;;;;;12.57;4.93;;;;;;;17.50;45.58;100047.66;5010854;28;20022;-80
2023/04/13 09:26:03;;;;;;;4.47;3.45;;;;;;;17.60;45.85;100056.44;5011251;28;20038;-82
2023/04/13 09:28:29;;;;;;;16.98;4.82;;;;;;;17.55;45.70;100046.09;5010719;28;20030;-82
2023/04/13 09:31:04;;;;;;;20.95;5.28;;;;;;;17.58;46.19;100048.50;5011249;28;20531;-82
2023/04/13 09:33:44;;;;;;;24.80;5.57;;;;;;;17.64;46.93;100053.19;5025903;28;20057;-80
2023/04/13 09:36:11;;;;;;;10.18;4.53;;;;;;;17.74;46.12;100050.19;5011432;28;20490;-80
2023/04/13 09:38:37;;;;;;;22.00;5.57;;;;;;;17.75;46.18;100047.28;5011662;28;20498;-81
2023/04/13 09:41:02;;;;;;;26.10;5.00;;;;;;;17.71;45.80;100039.66;5010924;28;20072;-81
2023/04/13 09:43:37;;;;;;;5.90;2.97;;;;;;;17.86;44.56;100043.25;5010746;28;20112;-80
2023/04/13 09:46:10;;;;;;;8.73;3.42;;;;;;;17.83;44.27;100025.44;5016735;28;20038;-81
2023/04/13 09:48:36;;;;;;;18.75;3.25;;;;;;;17.96;43.52;100052.00;5030975;28;20569;-84
2023/04/13 09:51:04;;;;;;;11.50;4.05;;;;;;;18.04;44.28;100048.38;5011986;28;20022;-82
2023/04/13 09:53:45;;;;;;;8.82;2.88;;;;;;;18.07;43.12;100040.66;5010409;28;20026;-81
2023/04/13 09:56:11;;;;;;;11.75;2.40;;;;;;;18.28;42.53;100058.97;5010804;28;20033;-82
2023/04/13 09:58:42;;;;;;;26.00;3.75;;;;;;;17.96;44.89;100062.88;5010239;28;20375;-82
2023/04/13 10:01:08;;;;;;;9.98;3.05;;;;;;;17.49;47.15;100059.59;5009524;28;20026;-80
2023/04/13 10:03:35;;;;;;;34.35;4.75;;;;;;;17.29;48.95;100070.09;5011951;28;20026;-82
2023/04/13 10:06:01;;;;;;;67.22;7.15;;;;;;;16.65;52.77;100052.34;5011380;28;20026;-82
2023/04/13 10:08:26;;;;;;;36.63;4.88;;;;;;;16.68;53.37;100077.28;5011084;28;20624;-81
2023/04/13 10:10:52;;;;;;;16.67;3.53;;;;;;;16.60;53.61;100073.75;5010339;28;20033;-80
2023/04/13 10:13:22;;;;;;;15.70;3.30;;;;;;;16.13;53.79;100087.28;5009972;28;20452;-82
2023/04/13 10:16:08;;;;;;;6.93;2.55;;;;;;;15.96;55.45;100081.03;5010017;28;20123;-83
2023/04/13 10:18:48;;;;;;;22.67;5.75;;;;;;;15.92;55.69;100084.28;5010092;28;20030;-80
2023/04/13 10:21:14;;;;;;;14.63;3.97;;;;;;;15.66;55.80;100096.16;5009929;28;20040;-81
2023/04/13 10:23:40;;;;;;;24.63;4.32;;;;;;;15.69;55.74;100090.41;5009525;28;20041;-80
2023/04/13 10:26:06;;;;;;;33.53;6.07;;;;;;;15.70;55.93;100091.25;5009592;28;20033;-81
2023/04/13 10:28:51;;;;;;;34.78;5.65;;;;;;;15.90;55.23;100092.56;5009515;28;20034;-80
2023/04/13 10:31:18;;;;;;;24.50;4.32;;;;;;;15.87;55.61;100092.09;5009069;28;20038;-80
2023/04/13 10:33:48;;;;;;;41.08;5.85;;;;;;;15.91;54.96;100080.72;5009595;28;20469;-80
2023/04/13 10:36:13;;;;;;;28.80;5.95;;;;;;;16.09;53.12;100097.63;5010019;28;20505;-82
2023/04/13 10:38:45;;;;;;;27.08;4.10;;;;;;;16.38;52.15;100088.06;5010923;28;20055;-80
2023/04/13 10:41:27;;;;;;;32.97;4.93;;;;;;;16.64;50.31;100092.22;5010977;28;20049;-81
2023/04/13 10:44:06;;;;;;;50.70;5.20;;;;;;;16.54;50.54;100085.28;5010332;28;20030;-80
2023/04/13 10:46:33;;;;;;;18.40;2.80;;;;;;;16.75;51.90;100075.53;5013996;28;20060;-83
2023/04/13 10:49:00;;;;;;;12.45;3.33;;;;;;;17.08;50.82;100078.91;5015750;28;20575;-83
2023/04/13 10:51:36;;;;;;;31.50;4.68;;;;;;;17.22;50.05;100082.69;5009364;28;20484;-81
2023/04/13 10:54:03;;;;;;;39.80;3.97;;;;;;;17.11;48.89;100083.97;5009158;28;20438;-80
2023/04/13 10:56:28;;;;;;;11.70;3.35;;;;;;;17.03;49.16;100075.03;5009167;28;20100;-80
2023/04/13 10:58:54;;;;;;;21.63;4.28;;;;;;;17.04;49.33;100082.16;5009064;28;20783;-81
2023/04/13 11:01:19;;;;;;;55.35;5.68;;;;;;;17.02;48.79;100085.06;5009312;28;20096;-81
2023/04/13 11:03:47;;;;;;;51.05;5.45;;;;;;;16.80;48.95;100084.00;5009554;28;20053;-82
2023/04/13 11:06:14;;;;;;;30.27;4.30;;;;;;;16.70;48.49;100080.66;5009461;28;20101;-80
2023/04/13 11:08:41;;;;;;;29.75;4.25;;;;;;;16.62;49.75;100079.84;5009389;28;20118;-81
2023/04/13 11:11:06;;;;;;;12.30;4.47;;;;;;;16.63;49.53;100070.69;5008890;28;20502;-80
2023/04/13 11:13:32;;;;;;;22.70;3.67;;;;;;;16.74;50.29;100062.97;5008593;28;20033;-82
2023/04/13 11:16:02;;;;;;;17.15;3.70;;;;;;;16.82;50.29;100073.78;5009453;28;20504;-81
2023/04/13 11:18:27;;;;;;;64.00;6.93;;;;;;;16.80;50.15;100061.41;5007758;28;20401;-81